createdAt,value
2024-04-22T00:01:24.141Z,13.52
2024-04-22T00:04:18.087Z,13.52
2024-04-22T00:07:06.617Z,13.43
2024-04-22T00:09:58.331Z,13.52
2024-04-22T00:12:49.524Z,13.46
2024-04-22T00:15:37.948Z,13.48
2024-04-22T00:18:29.448Z,13.40
2024-04-22T00:21:20.667Z,13.28
2024-04-22T00:24:12.142Z,13.34
2024-04-22T00:27:00.618Z,13.25
2024-04-22T00:29:51.710Z,13.07
2024-04-22T00:32:40.518Z,13.04
2024-04-22T00:35:31.740Z,12.97
2024-04-22T00:38:22.907Z,12.95
2024-04-22T00:41:14.352Z,12.96
2024-04-22T00:44:02.797Z,12.86
2024-04-22T00:46:54.388Z,12.88
2024-04-22T00:49:43.002Z,12.77
2024-04-22T00:52:35.410Z,12.80
2024-04-22T00:55:31.102Z,12.71
2024-04-22T00:58:20.452Z,12.71
2024-04-22T01:01:13.861Z,12.71
2024-04-22T01:04:03.433Z,12.74
2024-04-22T01:06:54.687Z,12.78
2024-04-22T01:09:43.411Z,12.73
2024-04-22T01:12:37.187Z,12.72
2024-04-22T01:15:25.697Z,12.68
2024-04-22T01:18:21.257Z,12.75
2024-04-22T01:21:09.938Z,12.74
2024-04-22T01:24:05.235Z,12.76
2024-04-22T01:26:57.601Z,12.76
2024-04-22T01:29:48.676Z,12.78
2024-04-22T01:32:37.230Z,12.71
2024-04-22T01:35:28.662Z,12.71
2024-04-22T01:38:17.108Z,12.73
2024-04-22T01:41:11.048Z,12.68
2024-04-22T01:43:59.541Z,12.68
2024-04-22T01:46:50.807Z,12.66
2024-04-22T01:49:39.554Z,12.63
2024-04-22T01:52:30.761Z,12.59
2024-04-22T01:55:19.260Z,12.52
2024-04-22T01:58:15.556Z,12.36
2024-04-22T02:01:12.564Z,12.29
2024-04-22T02:04:01.210Z,12.28
2024-04-22T02:06:52.589Z,12.17
2024-04-22T02:09:41.440Z,12.09
2024-04-22T02:12:32.564Z,12.12
2024-04-22T02:15:23.828Z,12.03
2024-04-22T02:18:14.901Z,12.06
2024-04-22T02:21:03.438Z,12.03
2024-04-22T02:23:54.850Z,11.94
2024-04-22T02:26:43.281Z,11.97
2024-04-22T02:29:34.647Z,12.04
2024-04-22T02:32:25.868Z,11.98
2024-04-22T02:35:17.213Z,12.00
2024-04-22T02:38:05.952Z,12.07
2024-04-22T02:40:57.919Z,11.97
2024-04-22T02:43:48.484Z,12.06
2024-04-22T02:46:39.699Z,12.04
2024-04-22T02:49:33.108Z,12.01
2024-04-22T02:52:24.312Z,11.94
2024-04-22T02:55:12.825Z,11.85
2024-04-22T02:58:04.479Z,11.77
2024-04-22T03:00:55.848Z,11.76
2024-04-22T03:03:47.280Z,11.66
2024-04-22T03:06:38.443Z,11.70
2024-04-22T03:09:34.083Z,11.65
2024-04-22T03:12:22.918Z,11.53
2024-04-22T03:15:14.060Z,11.54
2024-04-22T03:18:02.576Z,11.48
2024-04-22T03:20:53.748Z,11.52
2024-04-22T03:23:44.887Z,11.51
2024-04-22T03:26:36.007Z,11.51
2024-04-22T03:29:24.553Z,11.49
2024-04-22T03:32:15.805Z,11.51
2024-04-22T03:35:04.697Z,11.55
2024-04-22T03:37:55.798Z,11.52
2024-04-22T03:40:49.574Z,11.53
2024-04-22T03:43:40.816Z,11.48
2024-04-22T03:46:48.167Z,11.35
2024-04-22T03:49:59.398Z,11.32
2024-04-22T03:52:51.303Z,11.19
2024-04-22T03:55:43.600Z,11.14
2024-04-22T03:58:37.481Z,11.11
2024-04-22T04:01:29.081Z,11.18
2024-04-22T04:04:17.912Z,11.06
2024-04-22T04:07:09.394Z,11.09
2024-04-22T04:09:57.816Z,11.02
2024-04-22T04:12:49.103Z,11.00
2024-04-22T04:15:40.413Z,10.88
2024-04-22T04:18:31.607Z,10.97
2024-04-22T04:21:20.096Z,10.89
2024-04-22T04:24:11.928Z,10.88
2024-04-22T04:27:00.449Z,10.88
2024-04-22T04:29:51.554Z,10.84
2024-04-22T04:32:45.375Z,10.83
2024-04-22T04:35:33.897Z,10.90
2024-04-22T04:38:25.097Z,10.88
2024-04-22T04:41:13.555Z,10.85
2024-04-22T04:44:05.049Z,10.80
2024-04-22T04:46:53.554Z,10.76
2024-04-22T04:49:47.369Z,10.77
2024-04-22T04:52:35.987Z,10.69
2024-04-22T04:55:27.239Z,10.63
2024-04-22T04:58:16.353Z,10.55
2024-04-22T05:01:08.273Z,10.50
2024-04-22T05:03:59.155Z,10.47
2024-04-22T05:06:53.257Z,10.46
2024-04-22T05:09:41.741Z,10.51
2024-04-22T05:12:33.207Z,10.49
2024-04-22T05:15:21.942Z,10.54
2024-04-22T05:18:13.323Z,10.52
2024-04-22T05:21:01.859Z,10.53
2024-04-22T05:23:56.905Z,10.41
2024-04-22T05:26:45.441Z,10.44
2024-04-22T05:29:36.845Z,10.44
2024-04-22T05:32:25.425Z,10.43
2024-04-22T05:35:32.721Z,10.48
2024-04-22T05:38:24.018Z,10.41
2024-04-22T05:41:17.902Z,10.42
2024-04-22T05:44:09.199Z,10.38
2024-04-22T05:47:00.385Z,10.43
2024-04-22T05:49:51.648Z,10.53
2024-04-22T05:52:42.806Z,10.56
2024-04-22T05:55:34.045Z,10.50
2024-04-22T05:58:25.253Z,10.51
2024-04-22T06:01:16.532Z,10.52
2024-04-22T06:04:05.937Z,10.57
2024-04-22T06:06:57.130Z,10.64
2024-04-22T06:09:45.573Z,10.60
2024-04-22T06:12:36.741Z,10.62
2024-04-22T06:15:28.095Z,10.73
2024-04-22T06:18:20.207Z,10.74
2024-04-22T06:21:08.672Z,10.75
2024-04-22T06:23:59.831Z,10.85
2024-04-22T06:26:48.303Z,10.95
2024-04-22T06:29:39.432Z,11.03
2024-04-22T06:32:36.423Z,11.13
2024-04-22T06:35:28.394Z,11.12
2024-04-22T06:38:17.103Z,11.19
2024-04-22T06:41:08.795Z,11.21
2024-04-22T06:43:59.894Z,11.25
2024-04-22T06:46:51.043Z,11.26
2024-04-22T06:49:42.644Z,11.31
2024-04-22T06:52:33.918Z,11.38
2024-04-22T06:55:25.443Z,11.38
2024-04-22T06:58:17.200Z,11.45
2024-04-22T07:01:05.890Z,11.41
2024-04-22T07:03:57.147Z,11.58
2024-04-22T07:06:50.863Z,11.54
2024-04-22T07:09:42.025Z,11.69
2024-04-22T07:12:30.447Z,11.73
2024-04-22T07:15:22.250Z,11.81
2024-04-22T07:18:10.933Z,11.90
2024-04-22T07:21:02.096Z,12.02
2024-04-22T07:23:53.184Z,12.13
2024-04-22T07:26:45.035Z,12.13
2024-04-22T07:29:34.475Z,12.19
2024-04-22T07:32:26.482Z,12.37
2024-04-22T07:35:16.633Z,12.55
2024-04-22T07:38:12.879Z,12.95
2024-04-22T07:41:07.847Z,13.14
2024-04-22T07:43:56.522Z,13.39
2024-04-22T07:46:47.633Z,13.80
2024-04-22T07:49:36.143Z,13.97
2024-04-22T07:52:28.248Z,14.05
2024-04-22T07:55:17.674Z,14.22
2024-04-22T07:58:13.061Z,14.32
2024-04-22T08:01:03.523Z,14.41
2024-04-22T08:03:55.470Z,14.62
2024-04-22T08:06:48.297Z,14.68
2024-04-22T08:09:39.723Z,15.23
2024-04-22T08:12:31.263Z,15.46
2024-04-22T08:15:22.520Z,15.57
2024-04-22T08:18:16.046Z,15.31
2024-04-22T08:21:06.860Z,15.14
2024-04-22T08:23:58.024Z,15.42
2024-04-22T08:26:46.562Z,15.49
2024-04-22T08:29:37.952Z,15.49
2024-04-22T08:32:29.402Z,15.71
2024-04-22T08:35:20.676Z,15.60
2024-04-22T08:38:09.177Z,15.77
2024-04-22T08:41:00.639Z,16.05
2024-04-22T08:43:50.629Z,16.17
2024-04-22T08:46:41.880Z,16.40
2024-04-22T08:49:33.082Z,15.97
2024-04-22T08:52:25.346Z,15.37
2024-04-22T08:55:14.189Z,15.06
2024-04-22T08:58:05.279Z,14.82
2024-04-22T09:00:53.904Z,14.88
2024-04-22T09:03:45.181Z,14.87
2024-04-22T09:06:36.385Z,14.76
2024-04-22T09:09:40.424Z,14.73
2024-04-22T09:12:38.934Z,14.54
2024-04-22T09:15:28.218Z,14.29
2024-04-22T09:18:20.845Z,14.16
2024-04-22T09:21:11.543Z,14.10
2024-04-22T09:24:05.274Z,14.10
2024-04-22T09:26:53.848Z,14.07
2024-04-22T09:29:47.369Z,14.03
2024-04-22T09:32:38.199Z,13.97
2024-04-22T09:35:30.752Z,13.93
2024-04-22T09:38:28.418Z,13.78
2024-04-22T09:41:30.366Z,13.94
2024-04-22T09:44:23.166Z,14.02
2024-04-22T09:47:12.735Z,13.97
2024-04-22T09:50:06.041Z,13.62
2024-04-22T09:52:56.178Z,13.59
2024-04-22T09:55:49.476Z,13.69
2024-04-22T09:58:42.141Z,13.52
2024-04-22T10:01:33.785Z,13.60
2024-04-22T10:04:22.773Z,13.68
2024-04-22T10:07:14.227Z,13.59
2024-04-22T10:10:02.843Z,13.44
2024-04-22T10:12:54.452Z,13.39
2024-04-22T10:15:47.478Z,13.29
2024-04-22T10:18:38.525Z,13.15
2024-04-22T10:21:28.843Z,13.21
2024-04-22T10:24:30.213Z,13.13
2024-04-22T10:27:18.751Z,13.10
2024-04-22T10:30:11.469Z,13.16
2024-04-22T10:33:03.028Z,13.11
2024-04-22T10:35:54.464Z,13.15
2024-04-22T10:38:42.979Z,12.98
2024-04-22T10:41:34.306Z,13.28
2024-04-22T10:44:22.840Z,13.35
2024-04-22T10:47:14.923Z,13.28
2024-04-22T10:50:15.852Z,13.23
2024-04-22T10:53:08.727Z,13.13
2024-04-22T10:55:57.535Z,13.22
2024-04-22T10:58:48.934Z,13.30
2024-04-22T11:01:42.566Z,13.37
2024-04-22T11:04:34.187Z,13.42
2024-04-22T11:07:27.799Z,13.32
2024-04-22T11:10:28.062Z,13.31
2024-04-22T11:13:23.944Z,13.49
2024-04-22T11:16:17.419Z,13.48
2024-04-22T11:19:07.989Z,13.76
2024-04-22T11:21:59.252Z,13.80
2024-04-22T11:24:50.721Z,13.77
2024-04-22T11:27:41.996Z,13.77
2024-04-22T11:30:33.112Z,13.86
2024-04-22T11:33:25.013Z,13.82
2024-04-22T11:36:16.245Z,13.90
2024-04-22T11:39:13.135Z,13.91
2024-04-22T11:42:07.536Z,13.77
2024-04-22T11:44:59.164Z,13.86
2024-04-22T11:47:48.290Z,13.85
2024-04-22T11:50:40.700Z,13.82
2024-04-22T11:53:29.377Z,13.88
2024-04-22T11:56:21.326Z,13.82
2024-04-22T11:59:12.404Z,13.78
2024-04-22T12:02:03.767Z,13.79
2024-04-22T12:04:55.963Z,13.93
2024-04-22T12:07:47.692Z,14.00
2024-04-22T12:10:38.879Z,13.93
2024-04-22T12:13:29.821Z,13.97
2024-04-22T12:16:23.717Z,14.10
2024-04-22T12:19:12.307Z,14.10
2024-04-22T12:22:03.430Z,14.16
2024-04-22T12:24:51.910Z,14.24
2024-04-22T12:27:43.365Z,13.97
2024-04-22T12:30:31.858Z,14.47
2024-04-22T12:33:25.912Z,14.62
2024-04-22T12:36:14.431Z,14.67
2024-04-22T12:39:05.506Z,14.93
2024-04-22T12:41:54.373Z,14.89
2024-04-22T12:44:45.390Z,14.91
2024-04-22T12:47:52.421Z,15.06
2024-04-22T12:50:50.031Z,15.03
2024-04-22T12:53:41.536Z,14.81
2024-04-22T12:56:32.627Z,14.82
2024-04-22T12:59:23.682Z,14.73
2024-04-22T13:02:16.823Z,14.59
2024-04-22T13:05:09.185Z,14.62
2024-04-22T13:08:04.032Z,14.64
2024-04-22T13:10:55.483Z,14.48
2024-04-22T13:13:46.723Z,14.70
2024-04-22T13:16:37.892Z,14.98
2024-04-22T13:19:29.115Z,15.18
2024-04-22T13:22:17.901Z,15.32
2024-04-22T13:25:12.210Z,15.44
2024-04-22T13:28:00.856Z,15.45
2024-04-22T13:30:54.333Z,15.51
2024-04-22T13:33:44.537Z,15.55
2024-04-22T13:36:37.914Z,15.46
2024-04-22T13:39:26.431Z,15.51
2024-04-22T13:42:20.168Z,15.39
2024-04-22T13:45:08.840Z,15.23
2024-04-22T13:48:00.262Z,15.31
2024-04-22T13:50:48.902Z,15.33
2024-04-22T13:53:40.029Z,15.13
2024-04-22T13:56:28.476Z,15.25
2024-04-22T13:59:22.293Z,14.99
2024-04-22T14:02:10.851Z,14.94
2024-04-22T14:05:02.016Z,15.00
2024-04-22T14:07:50.604Z,15.03
2024-04-22T14:10:42.084Z,14.97
2024-04-22T14:13:30.646Z,15.01
2024-04-22T14:16:24.396Z,15.07
2024-04-22T14:19:12.905Z,15.19
2024-04-22T14:22:04.333Z,15.26
2024-04-22T14:24:52.897Z,15.26
2024-04-22T14:27:44.000Z,15.37
2024-04-22T14:30:32.595Z,15.49
2024-04-22T14:33:26.533Z,15.45
2024-04-22T14:36:15.058Z,15.46
2024-04-22T14:39:06.260Z,15.39
2024-04-22T14:41:54.785Z,15.19
2024-04-22T14:44:47.042Z,15.21
2024-04-22T14:47:36.950Z,14.92
2024-04-22T14:50:30.784Z,14.95
2024-04-22T14:53:19.306Z,14.94
2024-04-22T14:56:11.042Z,15.10
2024-04-22T14:59:00.874Z,15.01
2024-04-22T15:01:53.170Z,15.12
2024-04-22T15:04:44.649Z,14.98
2024-04-22T15:07:36.239Z,14.84
2024-04-22T15:10:27.458Z,14.91
2024-04-22T15:13:16.026Z,14.85
2024-04-22T15:16:07.695Z,14.87
2024-04-22T15:18:58.993Z,14.78
2024-04-22T15:21:47.510Z,14.70
2024-04-22T15:24:41.302Z,14.72
2024-04-22T15:27:29.772Z,14.83
2024-04-22T15:30:20.979Z,14.89
2024-04-22T15:33:11.009Z,14.92
2024-04-22T15:36:04.615Z,15.02
2024-04-22T15:38:53.213Z,15.21
2024-04-22T15:41:47.335Z,15.33
2024-04-22T15:44:35.826Z,15.35
2024-04-22T15:47:27.093Z,15.38
2024-04-22T15:50:15.740Z,15.42
2024-04-22T15:53:08.666Z,15.56
2024-04-22T15:55:57.757Z,15.63
2024-04-22T15:58:51.962Z,15.61
2024-04-22T16:01:41.047Z,15.62
2024-04-22T16:04:32.518Z,15.47
2024-04-22T16:07:22.929Z,15.44
2024-04-22T16:10:14.433Z,15.36
2024-04-22T16:13:03.023Z,15.35
2024-04-22T16:15:56.797Z,15.54
2024-04-22T16:18:48.404Z,15.54
2024-04-22T16:21:36.994Z,15.57
2024-04-22T16:24:28.485Z,15.55
2024-04-22T16:27:17.012Z,15.38
2024-04-22T16:30:09.457Z,15.49
2024-04-22T16:33:00.707Z,15.37
2024-04-22T16:35:52.201Z,15.35
2024-04-22T16:38:40.674Z,15.41
2024-04-22T16:41:31.888Z,15.30
2024-04-22T16:44:21.911Z,15.33
2024-04-22T16:47:13.243Z,15.28
2024-04-22T16:50:04.694Z,15.20
2024-04-22T16:52:55.889Z,15.09
2024-04-22T16:55:44.491Z,15.13
2024-04-22T16:58:35.644Z,15.05
2024-04-22T17:01:25.071Z,15.00
2024-04-22T17:04:16.457Z,14.98
2024-04-22T17:07:07.788Z,14.99
2024-04-22T17:09:58.907Z,14.92
2024-04-22T17:12:51.329Z,14.81
2024-04-22T17:15:40.098Z,14.80
2024-04-22T17:18:31.312Z,14.78
2024-04-22T17:21:19.914Z,14.92
2024-04-22T17:24:13.863Z,14.89
2024-04-22T17:27:02.372Z,14.88
2024-04-22T17:29:53.666Z,14.98
2024-04-22T17:32:42.930Z,14.89
2024-04-22T17:35:34.077Z,14.96
2024-04-22T17:38:25.715Z,14.82
2024-04-22T17:41:16.967Z,14.92
2024-04-22T17:44:09.117Z,15.03
2024-04-22T17:46:58.630Z,14.91
2024-04-22T17:49:50.203Z,15.05
2024-04-22T17:52:41.534Z,14.84
2024-04-22T17:55:33.814Z,14.81
2024-04-22T17:58:25.235Z,14.75
2024-04-22T18:01:17.531Z,14.72
2024-04-22T18:04:06.175Z,14.68
2024-04-22T18:06:57.505Z,14.62
2024-04-22T18:09:46.088Z,14.72
2024-04-22T18:12:38.183Z,14.64
2024-04-22T18:15:29.317Z,14.72
2024-04-22T18:18:20.490Z,14.75
2024-04-22T18:21:11.973Z,14.83
2024-04-22T18:24:03.339Z,14.80
2024-04-22T18:26:56.107Z,14.81
2024-04-22T18:29:44.533Z,14.83
2024-04-22T18:32:38.530Z,14.90
2024-04-22T18:35:27.065Z,14.93
2024-04-22T18:38:18.486Z,14.93
2024-04-22T18:41:10.238Z,14.92
2024-04-22T18:44:02.143Z,14.93
2024-04-22T18:46:50.684Z,14.86
2024-04-22T18:49:44.659Z,14.83
2024-04-22T18:52:33.236Z,14.75
2024-04-22T18:55:24.550Z,14.75
2024-04-22T18:58:13.026Z,14.65
2024-04-22T19:01:04.322Z,14.65
2024-04-22T19:03:52.878Z,14.62
2024-04-22T19:06:47.041Z,14.66
2024-04-22T19:09:38.276Z,14.61
2024-04-22T19:12:26.787Z,14.65
2024-04-22T19:15:18.033Z,14.61
2024-04-22T19:18:07.105Z,14.63
2024-04-22T19:20:58.233Z,14.71
2024-04-22T19:23:52.067Z,14.69
2024-04-22T19:26:40.488Z,14.68
2024-04-22T19:29:31.534Z,14.69
2024-04-22T19:32:19.977Z,14.57
2024-04-22T19:35:11.723Z,14.64
2024-04-22T19:38:02.878Z,14.67
2024-04-22T19:40:56.646Z,14.61
2024-04-22T19:43:45.204Z,14.47
2024-04-22T19:46:36.721Z,14.70
2024-04-22T19:49:25.359Z,14.72
2024-04-22T19:52:16.658Z,14.76
2024-04-22T19:55:05.866Z,14.78
2024-04-22T19:57:59.817Z,14.80
2024-04-22T20:00:48.485Z,14.78
2024-04-22T20:03:40.131Z,14.80
2024-04-22T20:06:28.835Z,14.82
2024-04-22T20:09:20.416Z,14.80
2024-04-22T20:12:09.007Z,14.74
2024-04-22T20:15:03.172Z,14.49
2024-04-22T20:18:04.969Z,14.59
2024-04-22T20:20:59.678Z,14.42
2024-04-22T20:23:48.266Z,14.45
2024-04-22T20:26:39.430Z,14.19
2024-04-22T20:29:27.897Z,14.20
2024-04-22T20:32:21.738Z,14.17
2024-04-22T20:35:12.967Z,14.13
2024-04-22T20:38:01.471Z,14.14
2024-04-22T20:41:00.461Z,13.96
2024-04-22T20:43:48.995Z,13.98
2024-04-22T20:46:43.195Z,14.00
2024-04-22T20:49:34.429Z,13.89
2024-04-22T20:52:25.556Z,13.98
2024-04-22T20:55:14.726Z,13.93
2024-04-22T20:58:05.856Z,14.00
2024-04-22T21:00:55.057Z,13.96
2024-04-22T21:03:46.167Z,13.87
2024-04-22T21:06:37.307Z,14.01
2024-04-22T21:09:28.422Z,13.96
2024-04-22T21:12:17.967Z,13.93
2024-04-22T21:15:10.041Z,13.93
2024-04-22T21:17:58.583Z,13.83
2024-04-22T21:20:50.061Z,13.83
2024-04-22T21:23:44.203Z,13.80
2024-04-22T21:26:32.934Z,13.72
2024-04-22T21:29:24.413Z,13.82
2024-04-22T21:32:12.774Z,13.81
2024-04-22T21:35:04.690Z,13.79
2024-04-22T21:37:53.449Z,13.61
2024-04-22T21:40:47.404Z,13.64
2024-04-22T21:43:37.605Z,13.59
2024-04-22T21:46:28.809Z,13.63
2024-04-22T21:49:17.243Z,13.60
2024-04-22T21:52:10.599Z,13.56
2024-04-22T21:54:59.590Z,13.50
2024-04-22T21:58:48.135Z,13.39
2024-04-22T22:02:36.767Z,13.34
2024-04-22T22:06:21.152Z,13.27
2024-04-22T22:09:29.025Z,13.22
2024-04-22T22:12:21.528Z,13.27
2024-04-22T22:15:14.810Z,13.36
2024-04-22T22:18:03.785Z,13.39
2024-04-22T22:20:55.191Z,13.38
2024-04-22T22:23:43.683Z,13.19
2024-04-22T22:26:37.511Z,13.22
2024-04-22T22:29:25.887Z,13.15
2024-04-22T22:32:17.045Z,13.17
2024-04-22T22:35:06.090Z,13.17
2024-04-22T22:37:57.681Z,13.13
2024-04-22T22:40:46.162Z,13.09
2024-04-22T22:43:39.896Z,13.19
2024-04-22T22:46:28.444Z,13.25
2024-04-22T22:49:19.690Z,13.21
2024-04-22T22:52:08.224Z,13.24
2024-04-22T22:54:59.564Z,13.16
2024-04-22T22:57:48.017Z,13.16
2024-04-22T23:00:41.984Z,13.26
2024-04-22T23:03:30.401Z,13.16
2024-04-22T23:06:21.462Z,13.08
2024-04-22T23:09:10.160Z,13.15
2024-04-22T23:12:01.555Z,13.24
2024-04-22T23:14:50.151Z,13.21
2024-04-22T23:17:43.904Z,13.16
2024-04-22T23:20:32.452Z,13.23
2024-04-22T23:23:23.504Z,13.14
2024-04-22T23:26:11.988Z,13.09
2024-04-22T23:29:03.135Z,13.15
2024-04-22T23:31:51.673Z,13.13
2024-04-22T23:34:45.443Z,13.00
2024-04-22T23:37:33.969Z,13.08
2024-04-22T23:40:25.219Z,13.10
2024-04-22T23:43:13.740Z,12.88
2024-04-22T23:46:05.142Z,12.89
2024-04-22T23:48:56.317Z,13.00
2024-04-22T23:51:47.615Z,12.95
2024-04-22T23:54:38.669Z,13.02
2024-04-22T23:57:27.069Z,13.03
